createdAt,value
2022-11-30T00:01:23.079Z,8.90
2022-11-30T00:03:54.240Z,8.90
2022-11-30T00:06:23.461Z,8.90
2022-11-30T00:08:54.121Z,8.90
2022-11-30T00:11:22.547Z,8.90
2022-11-30T00:13:50.120Z,8.90
2022-11-30T00:16:16.908Z,8.90
2022-11-30T00:18:43.818Z,8.90
2022-11-30T00:21:13.118Z,8.90
2022-11-30T00:23:41.706Z,8.90
2022-11-30T00:26:10.679Z,8.90
2022-11-30T00:28:38.816Z,8.90
2022-11-30T00:31:08.778Z,8.90
2022-11-30T00:33:37.128Z,8.90
2022-11-30T00:36:06.637Z,8.90
2022-11-30T00:38:34.420Z,8.90
2022-11-30T00:41:02.128Z,8.90
2022-11-30T00:43:30.180Z,8.90
2022-11-30T00:45:57.507Z,8.90
2022-11-30T00:48:24.744Z,8.90
2022-11-30T00:50:51.761Z,8.90
2022-11-30T00:53:19.718Z,8.80
2022-11-30T00:55:48.480Z,8.80
2022-11-30T00:58:15.512Z,8.80
2022-11-30T01:00:42.381Z,8.80
2022-11-30T01:03:09.839Z,8.80
2022-11-30T01:05:37.387Z,8.80
2022-11-30T01:08:06.651Z,8.80
2022-11-30T01:10:37.770Z,8.80
2022-11-30T01:13:05.170Z,8.80
2022-11-30T01:15:35.853Z,8.80
2022-11-30T01:18:02.591Z,8.80
2022-11-30T01:20:29.376Z,8.80
2022-11-30T01:22:56.403Z,8.80
2022-11-30T01:25:23.798Z,8.80
2022-11-30T01:27:51.306Z,8.80
2022-11-30T01:30:19.049Z,8.80
2022-11-30T01:32:45.868Z,8.80
2022-11-30T01:35:12.598Z,8.80
2022-11-30T01:37:39.280Z,8.80
2022-11-30T01:40:06.786Z,8.80
2022-11-30T01:42:33.658Z,8.80
2022-11-30T01:45:02.313Z,8.80
2022-11-30T01:47:34.370Z,8.80
2022-11-30T01:50:16.689Z,8.80
2022-11-30T01:52:48.075Z,8.80
2022-11-30T01:55:16.810Z,8.80
2022-11-30T01:57:54.578Z,8.80
2022-11-30T02:00:21.577Z,8.80
2022-11-30T02:02:55.760Z,8.80
2022-11-30T02:05:23.435Z,8.80
2022-11-30T02:07:50.368Z,8.80
2022-11-30T02:10:22.028Z,8.80
2022-11-30T02:13:07.365Z,8.80
2022-11-30T02:15:57.209Z,8.80
2022-11-30T02:18:51.751Z,8.80
2022-11-30T02:21:21.498Z,8.80
2022-11-30T02:24:29.330Z,8.80
2022-11-30T02:26:58.965Z,8.70
2022-11-30T02:29:53.032Z,8.70
2022-11-30T02:32:25.810Z,8.70
2022-11-30T02:34:55.107Z,8.70
2022-11-30T02:37:23.405Z,8.70
2022-11-30T02:39:50.179Z,8.70
2022-11-30T02:42:16.919Z,8.70
2022-11-30T02:44:47.512Z,8.70
2022-11-30T02:47:45.234Z,8.70
2022-11-30T02:50:17.995Z,8.70
2022-11-30T02:52:45.390Z,8.70
2022-11-30T02:55:16.267Z,8.70
2022-11-30T02:57:43.192Z,8.70
2022-11-30T03:00:11.741Z,8.70
2022-11-30T03:02:39.223Z,8.70
2022-11-30T03:05:07.068Z,8.70
2022-11-30T03:07:33.990Z,8.70
2022-11-30T03:10:00.960Z,8.70
2022-11-30T03:12:27.859Z,8.70
2022-11-30T03:14:54.580Z,8.70
2022-11-30T03:17:21.278Z,8.70
2022-11-30T03:19:48.010Z,8.70
2022-11-30T03:22:14.692Z,8.70
2022-11-30T03:24:41.374Z,8.70
2022-11-30T03:27:08.245Z,8.70
2022-11-30T03:29:35.026Z,8.70
2022-11-30T03:32:01.755Z,8.70
2022-11-30T03:34:28.699Z,8.70
2022-11-30T03:36:55.925Z,8.70
2022-11-30T03:39:23.578Z,8.70
2022-11-30T03:41:50.786Z,8.70
2022-11-30T03:44:17.788Z,8.70
2022-11-30T03:46:44.509Z,8.70
2022-11-30T03:49:11.310Z,8.70
2022-11-30T03:51:38.020Z,8.70
2022-11-30T03:54:04.906Z,8.60
2022-11-30T03:56:31.706Z,8.60
2022-11-30T03:58:58.466Z,8.70
2022-11-30T04:01:25.353Z,8.60
2022-11-30T04:03:52.670Z,8.60
2022-11-30T04:06:20.734Z,8.60
2022-11-30T04:08:47.459Z,8.60
2022-11-30T04:11:14.489Z,8.60
2022-11-30T04:13:41.775Z,8.60
2022-11-30T04:16:09.029Z,8.60
2022-11-30T04:18:37.016Z,8.60
2022-11-30T04:21:04.686Z,8.60
2022-11-30T04:23:35.193Z,8.60
2022-11-30T04:26:11.447Z,8.60
2022-11-30T04:28:38.249Z,8.60
2022-11-30T04:31:05.255Z,8.60
2022-11-30T04:33:32.076Z,8.60
2022-11-30T04:36:01.364Z,8.60
2022-11-30T04:38:28.566Z,8.60
2022-11-30T04:40:55.609Z,8.60
2022-11-30T04:43:22.854Z,8.60
2022-11-30T04:45:49.835Z,8.60
2022-11-30T04:48:18.004Z,8.60
2022-11-30T04:50:45.173Z,8.60
2022-11-30T04:53:11.881Z,8.60
2022-11-30T04:55:39.135Z,8.60
2022-11-30T04:58:06.690Z,8.60
2022-11-30T05:00:33.737Z,8.60
2022-11-30T05:03:00.511Z,8.60
2022-11-30T05:05:27.241Z,8.60
2022-11-30T05:07:58.857Z,8.60
2022-11-30T05:10:27.369Z,8.60
2022-11-30T05:12:54.649Z,8.60
2022-11-30T05:15:22.057Z,8.60
2022-11-30T05:17:48.889Z,8.60
2022-11-30T05:20:15.854Z,8.60
2022-11-30T05:22:42.576Z,8.60
2022-11-30T05:25:09.728Z,8.60
2022-11-30T05:27:36.692Z,8.60
2022-11-30T05:30:04.532Z,8.60
2022-11-30T05:32:31.220Z,8.60
2022-11-30T05:34:58.592Z,8.60
2022-11-30T05:37:25.464Z,8.60
2022-11-30T05:39:52.151Z,8.60
2022-11-30T05:42:18.898Z,8.60
2022-11-30T05:44:46.019Z,8.60
2022-11-30T05:47:13.332Z,8.60
2022-11-30T05:49:40.354Z,8.60
2022-11-30T05:52:07.428Z,8.60
2022-11-30T05:54:34.733Z,8.60
2022-11-30T05:57:01.677Z,8.60
2022-11-30T05:59:28.468Z,8.60
2022-11-30T06:01:55.334Z,8.60
2022-11-30T06:04:22.651Z,8.60
2022-11-30T06:06:50.945Z,8.60
2022-11-30T06:09:17.795Z,8.60
2022-11-30T06:11:44.534Z,8.60
2022-11-30T06:14:11.320Z,8.60
2022-11-30T06:16:39.776Z,8.60
2022-11-30T06:19:06.896Z,8.60
2022-11-30T06:21:33.640Z,8.60
2022-11-30T06:24:01.099Z,8.60
2022-11-30T06:26:27.860Z,8.60
2022-11-30T06:28:54.783Z,8.60
2022-11-30T06:31:21.595Z,8.60
2022-11-30T06:33:48.529Z,8.60
2022-11-30T06:36:21.671Z,8.60
2022-11-30T06:38:48.337Z,8.60
2022-11-30T06:41:14.998Z,8.60
2022-11-30T06:43:41.786Z,8.60
2022-11-30T06:46:08.728Z,8.60
2022-11-30T06:48:36.156Z,8.60
2022-11-30T06:51:09.505Z,8.60
2022-11-30T06:53:36.999Z,8.60
2022-11-30T06:56:09.870Z,8.60
2022-11-30T06:58:41.072Z,8.60
2022-11-30T07:01:10.795Z,8.60
2022-11-30T07:03:37.619Z,8.60
2022-11-30T07:06:12.591Z,8.60
2022-11-30T07:08:40.096Z,8.60
2022-11-30T07:11:08.943Z,8.60
2022-11-30T07:13:36.352Z,8.60
2022-11-30T07:16:05.460Z,8.60
2022-11-30T07:18:33.259Z,8.60
2022-11-30T07:21:01.168Z,8.60
2022-11-30T07:23:52.329Z,8.60
2022-11-30T07:26:22.563Z,8.60
2022-11-30T07:28:54.610Z,8.60
2022-11-30T07:31:27.350Z,8.60
2022-11-30T07:33:55.228Z,8.60
2022-11-30T07:36:23.846Z,8.60
2022-11-30T07:38:50.803Z,8.60
2022-11-30T07:41:18.008Z,8.60
2022-11-30T07:43:45.017Z,8.60
2022-11-30T07:46:13.318Z,8.60
2022-11-30T07:48:40.626Z,8.60
2022-11-30T07:51:22.074Z,8.60
2022-11-30T07:53:49.370Z,8.60
2022-11-30T07:56:20.890Z,8.70
2022-11-30T07:58:49.329Z,8.70
2022-11-30T08:01:22.386Z,8.70
2022-11-30T08:03:51.058Z,8.70
2022-11-30T08:06:20.909Z,8.70
2022-11-30T08:08:49.842Z,8.70
2022-11-30T08:11:19.436Z,8.70
2022-11-30T08:13:46.485Z,8.80
2022-11-30T08:16:18.855Z,8.80
2022-11-30T08:18:47.533Z,8.80
2022-11-30T08:21:16.566Z,8.80
2022-11-30T08:23:45.892Z,8.80
2022-11-30T08:26:18.341Z,8.80
2022-11-30T08:28:46.265Z,8.90
2022-11-30T08:31:22.447Z,8.90
2022-11-30T08:33:50.043Z,8.90
2022-11-30T08:36:20.095Z,8.90
2022-11-30T08:38:47.512Z,8.90
2022-11-30T08:41:17.276Z,8.90
2022-11-30T08:43:43.978Z,8.90
2022-11-30T08:46:35.130Z,8.90
2022-11-30T08:49:13.329Z,8.90
2022-11-30T08:52:16.039Z,8.90
2022-11-30T08:54:33.858Z,8.90
2022-11-30T08:57:00.625Z,8.80
2022-11-30T08:59:27.351Z,8.90
2022-11-30T09:01:54.199Z,8.90
2022-11-30T09:04:20.963Z,8.90
2022-11-30T09:06:47.819Z,9.00
2022-11-30T09:09:14.654Z,9.00
2022-11-30T09:11:41.779Z,9.00
2022-11-30T09:14:09.997Z,9.00
2022-11-30T09:16:36.731Z,9.00
2022-11-30T09:19:03.625Z,9.00
2022-11-30T09:21:30.531Z,9.00
2022-11-30T09:23:57.376Z,9.00
2022-11-30T09:26:25.644Z,9.00
2022-11-30T09:28:53.860Z,9.00
2022-11-30T09:31:23.502Z,8.90
2022-11-30T09:33:50.942Z,8.90
2022-11-30T09:36:20.642Z,8.90
2022-11-30T09:38:48.313Z,8.90
2022-11-30T09:41:46.131Z,8.90
2022-11-30T09:44:38.407Z,8.90
2022-11-30T09:47:07.860Z,8.90
2022-11-30T09:49:39.498Z,8.90
2022-11-30T09:52:14.104Z,8.90
2022-11-30T09:54:43.569Z,8.90
2022-11-30T09:57:34.055Z,8.90
2022-11-30T10:00:04.867Z,9.00
2022-11-30T10:02:34.184Z,9.00
2022-11-30T10:05:01.706Z,9.00
2022-11-30T10:07:53.741Z,9.00
2022-11-30T10:10:33.524Z,9.10
2022-11-30T10:13:18.076Z,9.10
2022-11-30T10:16:09.901Z,9.10
2022-11-30T10:18:51.880Z,9.10
2022-11-30T10:21:45.764Z,9.20
2022-11-30T10:24:24.533Z,9.20
2022-11-30T10:26:56.653Z,9.20
2022-11-30T10:29:40.658Z,9.20
2022-11-30T10:32:20.402Z,9.20
2022-11-30T10:34:56.215Z,9.20
2022-11-30T10:37:30.450Z,9.10
2022-11-30T10:40:09.918Z,9.10
2022-11-30T10:42:46.189Z,9.20
2022-11-30T10:45:16.375Z,9.10
2022-11-30T10:47:55.652Z,9.10
2022-11-30T10:50:27.372Z,9.10
2022-11-30T10:52:56.945Z,9.10
2022-11-30T10:55:26.664Z,9.10
2022-11-30T10:57:59.437Z,9.10
2022-11-30T11:00:26.401Z,9.10
2022-11-30T11:02:53.629Z,9.10
2022-11-30T11:05:31.836Z,9.20
2022-11-30T11:08:22.866Z,9.20
2022-11-30T11:10:51.553Z,9.10
2022-11-30T11:13:40.402Z,9.20
2022-11-30T11:16:13.046Z,9.20
2022-11-30T11:18:54.334Z,9.20
2022-11-30T11:21:23.260Z,9.20
2022-11-30T11:23:53.005Z,9.20
2022-11-30T11:26:21.155Z,9.20
2022-11-30T11:28:50.165Z,9.20
2022-11-30T11:31:19.319Z,9.20
2022-11-30T11:33:54.509Z,9.20
2022-11-30T11:36:47.639Z,9.20
2022-11-30T11:39:26.754Z,9.20
2022-11-30T11:41:53.536Z,9.20
2022-11-30T11:44:22.106Z,9.20
2022-11-30T11:46:59.675Z,9.30
2022-11-30T11:49:29.083Z,9.20
2022-11-30T11:52:07.359Z,9.30
2022-11-30T11:54:42.951Z,9.30
2022-11-30T11:57:13.215Z,9.30
2022-11-30T11:59:50.209Z,9.30
2022-11-30T12:02:42.594Z,9.30
2022-11-30T12:05:16.439Z,9.30
2022-11-30T12:07:59.964Z,9.30
2022-11-30T12:10:53.044Z,9.30
2022-11-30T12:13:41.583Z,9.30
2022-11-30T12:16:35.063Z,9.30
2022-11-30T12:19:22.580Z,9.30
2022-11-30T12:22:10.402Z,9.30
2022-11-30T12:25:04.260Z,9.30
2022-11-30T12:28:00.899Z,9.30
2022-11-30T12:31:11.748Z,9.30
2022-11-30T12:34:04.115Z,9.30
2022-11-30T12:37:01.933Z,9.30
2022-11-30T12:39:50.246Z,9.30
2022-11-30T12:42:17.132Z,9.30
2022-11-30T12:44:50.971Z,9.30
2022-11-30T12:47:23.457Z,9.30
2022-11-30T12:50:11.749Z,9.30
2022-11-30T12:53:09.869Z,9.30
2022-11-30T12:55:48.001Z,9.30
2022-11-30T12:58:27.823Z,9.30
2022-11-30T13:01:00.676Z,9.30
2022-11-30T13:03:45.340Z,9.30
2022-11-30T13:06:20.161Z,9.30
2022-11-30T13:09:14.289Z,9.30
2022-11-30T13:11:46.137Z,9.20
2022-11-30T13:14:26.611Z,9.20
2022-11-30T13:17:18.480Z,9.20
2022-11-30T13:20:20.606Z,9.20
2022-11-30T13:23:09.469Z,9.20
2022-11-30T13:28:40.679Z,9.30
2022-11-30T13:31:20.292Z,9.30
2022-11-30T13:33:58.973Z,9.30
2022-11-30T13:36:33.661Z,9.30
2022-11-30T13:39:15.563Z,9.20
2022-11-30T13:42:12.557Z,9.30
2022-11-30T13:44:41.423Z,9.30
2022-11-30T13:47:19.740Z,9.30
2022-11-30T13:49:47.180Z,9.20
2022-11-30T13:52:23.977Z,9.30
2022-11-30T13:54:57.376Z,9.30
2022-11-30T13:57:30.242Z,9.30
2022-11-30T13:59:57.613Z,9.30
2022-11-30T14:02:34.091Z,9.30
2022-11-30T14:05:19.260Z,9.20
2022-11-30T14:07:52.001Z,9.20
2022-11-30T14:10:31.015Z,9.20
2022-11-30T14:13:10.882Z,9.20
2022-11-30T14:15:43.438Z,9.20
2022-11-30T14:18:10.345Z,9.20
2022-11-30T14:20:51.259Z,9.20
2022-11-30T14:23:40.206Z,9.20
2022-11-30T14:26:11.295Z,9.20
2022-11-30T14:29:11.146Z,9.20
2022-11-30T14:31:48.277Z,9.20
2022-11-30T14:34:36.530Z,9.20
2022-11-30T14:37:26.048Z,9.20
2022-11-30T14:39:56.737Z,9.20
2022-11-30T14:42:26.335Z,9.20
2022-11-30T14:44:54.145Z,9.20
2022-11-30T14:47:28.427Z,9.20
2022-11-30T14:49:57.082Z,9.20
2022-11-30T14:53:05.795Z,9.20
2022-11-30T14:55:41.276Z,9.20
2022-11-30T14:58:26.558Z,9.20
2022-11-30T15:00:53.720Z,9.20
2022-11-30T15:03:38.891Z,9.20
2022-11-30T15:06:07.711Z,9.20
2022-11-30T15:08:42.283Z,9.20
2022-11-30T15:11:12.263Z,9.20
2022-11-30T15:13:46.276Z,9.10
2022-11-30T15:16:31.122Z,9.20
2022-11-30T15:18:59.739Z,9.20
2022-11-30T15:21:30.450Z,9.20
2022-11-30T15:24:00.142Z,9.10
2022-11-30T15:26:42.276Z,9.10
2022-11-30T15:29:17.128Z,9.10
2022-11-30T15:31:48.699Z,9.10
2022-11-30T15:34:21.525Z,9.10
2022-11-30T15:36:48.923Z,9.10
2022-11-30T15:39:22.080Z,9.10
2022-11-30T15:41:55.064Z,9.10
2022-11-30T15:44:45.521Z,9.10
2022-11-30T15:47:35.013Z,9.10
2022-11-30T15:50:03.250Z,9.10
2022-11-30T15:52:31.416Z,9.10
2022-11-30T15:55:03.192Z,9.10
2022-11-30T15:57:59.051Z,9.10
2022-11-30T16:00:26.369Z,9.10
2022-11-30T16:03:10.725Z,9.10
2022-11-30T16:05:57.055Z,9.10
2022-11-30T16:08:24.071Z,9.10
2022-11-30T16:10:51.347Z,9.10
2022-11-30T16:13:21.280Z,9.10
2022-11-30T16:15:50.753Z,9.10
2022-11-30T16:18:19.121Z,9.10
2022-11-30T16:20:49.463Z,9.10
2022-11-30T16:23:17.467Z,9.10
2022-11-30T16:25:46.126Z,9.10
2022-11-30T16:28:15.479Z,9.00
2022-11-30T16:30:42.982Z,9.10
2022-11-30T16:33:24.681Z,9.00
2022-11-30T16:36:07.010Z,9.00
2022-11-30T16:38:33.960Z,9.00
2022-11-30T16:41:20.472Z,9.00
2022-11-30T16:43:49.302Z,9.00
2022-11-30T16:46:19.437Z,9.00
2022-11-30T16:48:47.270Z,9.00
2022-11-30T16:51:18.682Z,9.00
2022-11-30T16:53:46.046Z,9.00
2022-11-30T16:56:14.809Z,9.00
2022-11-30T16:58:42.674Z,9.00
2022-11-30T17:01:35.113Z,9.00
2022-11-30T17:04:16.443Z,9.00
2022-11-30T17:06:48.218Z,9.00
2022-11-30T17:09:17.812Z,9.00
2022-11-30T17:11:46.936Z,9.00
2022-11-30T17:14:15.008Z,9.00
2022-11-30T17:16:42.799Z,9.00
2022-11-30T17:19:09.998Z,9.00
2022-11-30T17:21:39.020Z,9.00
2022-11-30T17:24:06.917Z,9.00
2022-11-30T17:26:33.878Z,9.00
2022-11-30T17:29:00.998Z,9.00
2022-11-30T17:31:28.213Z,9.00
2022-11-30T17:33:55.074Z,9.00
2022-11-30T17:36:23.448Z,9.00
2022-11-30T17:38:51.627Z,9.00
2022-11-30T17:41:20.197Z,9.00
2022-11-30T17:43:48.296Z,9.00
2022-11-30T17:46:18.161Z,9.00
2022-11-30T17:48:45.556Z,9.00
2022-11-30T17:51:13.220Z,9.00
2022-11-30T17:53:42.019Z,9.00
2022-11-30T17:56:14.402Z,9.00
2022-11-30T17:58:44.324Z,9.00
2022-11-30T18:01:23.485Z,9.00
2022-11-30T18:03:51.901Z,8.90
2022-11-30T18:06:20.689Z,8.90
2022-11-30T18:08:48.013Z,8.90
2022-11-30T18:11:16.439Z,8.90
2022-11-30T18:13:43.349Z,8.90
2022-11-30T18:16:15.321Z,8.90
2022-11-30T18:18:47.438Z,8.90
2022-11-30T18:21:17.159Z,8.90
2022-11-30T18:23:44.095Z,8.90
2022-11-30T18:26:14.012Z,8.90
2022-11-30T18:28:40.857Z,8.90
2022-11-30T18:31:07.841Z,8.80
2022-11-30T18:33:35.307Z,8.80
2022-11-30T18:36:03.475Z,8.80
2022-11-30T18:38:37.048Z,8.80
2022-11-30T18:41:04.765Z,8.80
2022-11-30T18:43:33.484Z,8.70
2022-11-30T18:46:09.137Z,8.70
2022-11-30T18:48:37.543Z,8.70
2022-11-30T18:51:15.578Z,8.70
2022-11-30T18:53:43.185Z,8.70
2022-11-30T18:56:14.726Z,8.80
2022-11-30T18:58:42.721Z,8.80
2022-11-30T19:01:14.375Z,8.70
2022-11-30T19:03:41.901Z,8.70
2022-11-30T19:06:10.283Z,8.70
2022-11-30T19:08:39.237Z,8.70
2022-11-30T19:11:08.173Z,8.70
2022-11-30T19:13:35.603Z,8.70
2022-11-30T19:16:14.461Z,8.70
2022-11-30T19:18:42.184Z,8.70
2022-11-30T19:21:16.919Z,8.70
2022-11-30T19:23:45.182Z,8.70
2022-11-30T19:26:16.021Z,8.60
2022-11-30T19:28:44.484Z,8.60
2022-11-30T19:31:17.961Z,8.60
2022-11-30T19:33:47.104Z,8.60
2022-11-30T19:36:17.057Z,8.50
2022-11-30T19:38:44.639Z,8.50
2022-11-30T19:41:14.035Z,8.50
2022-11-30T19:43:43.525Z,8.40
2022-11-30T19:46:17.217Z,8.40
2022-11-30T19:48:45.394Z,8.40
2022-11-30T19:51:18.307Z,8.40
2022-11-30T19:53:46.003Z,8.40
2022-11-30T19:56:17.694Z,8.40
2022-11-30T19:58:46.451Z,8.40
2022-11-30T20:01:15.519Z,8.40
2022-11-30T20:03:44.546Z,8.40
2022-11-30T20:06:12.715Z,8.40
2022-11-30T20:08:40.399Z,8.40
2022-11-30T20:11:08.571Z,8.30
2022-11-30T20:13:35.636Z,8.30
2022-11-30T20:16:13.505Z,8.30
2022-11-30T20:18:45.758Z,8.30
2022-11-30T20:21:25.299Z,8.20
2022-11-30T20:23:54.861Z,8.30
2022-11-30T20:26:30.015Z,8.20
2022-11-30T20:28:58.407Z,8.20
2022-11-30T20:31:26.349Z,8.20
2022-11-30T20:33:53.423Z,8.20
2022-11-30T20:36:21.457Z,8.20
2022-11-30T20:38:48.537Z,8.20
2022-11-30T20:41:18.830Z,8.20
2022-11-30T20:43:45.835Z,8.20
2022-11-30T20:46:33.175Z,8.20
2022-11-30T20:49:02.233Z,8.20
2022-11-30T20:51:32.760Z,8.20
2022-11-30T20:54:03.771Z,8.20
2022-11-30T20:56:31.594Z,8.20
2022-11-30T20:59:01.789Z,8.20
2022-11-30T21:01:28.850Z,8.20
2022-11-30T21:03:56.140Z,8.10
2022-11-30T21:06:23.053Z,8.10
2022-11-30T21:08:50.168Z,8.20
2022-11-30T21:11:20.066Z,8.10
2022-11-30T21:13:49.347Z,8.10
2022-11-30T21:16:25.617Z,8.10
2022-11-30T21:18:54.971Z,8.10
2022-11-30T21:21:24.425Z,8.10
2022-11-30T21:23:51.807Z,8.10
2022-11-30T21:26:26.146Z,8.10
2022-11-30T21:28:56.037Z,8.10
2022-11-30T21:31:24.316Z,8.00
2022-11-30T21:33:53.507Z,8.00
2022-11-30T21:36:21.752Z,8.00
2022-11-30T21:38:53.395Z,8.00
2022-11-30T21:41:20.400Z,8.00
2022-11-30T21:43:47.771Z,8.00
2022-11-30T21:46:17.907Z,8.00
2022-11-30T21:48:47.869Z,8.00
2022-11-30T21:51:17.451Z,8.00
2022-11-30T21:53:46.664Z,7.90
2022-11-30T21:56:16.416Z,7.90
2022-11-30T21:58:45.588Z,7.90
2022-11-30T22:01:18.317Z,7.90
2022-11-30T22:03:45.580Z,7.90
2022-11-30T22:06:17.754Z,7.90
2022-11-30T22:08:45.456Z,7.90
2022-11-30T22:11:20.441Z,7.90
2022-11-30T22:13:54.357Z,7.90
2022-11-30T22:16:23.625Z,7.90
2022-11-30T22:18:54.829Z,7.90
2022-11-30T22:21:27.261Z,7.90
2022-11-30T22:23:59.137Z,7.90
2022-11-30T22:26:31.347Z,7.90
2022-11-30T22:29:05.481Z,7.90
2022-11-30T22:31:35.030Z,7.90
2022-11-30T22:34:01.957Z,7.90
2022-11-30T22:36:30.867Z,7.90
2022-11-30T22:39:02.847Z,7.80
2022-11-30T22:41:30.425Z,7.80
2022-11-30T22:43:58.395Z,7.80
2022-11-30T22:46:31.067Z,7.80
2022-11-30T22:49:02.707Z,7.80
2022-11-30T22:51:31.568Z,7.80
2022-11-30T22:53:58.931Z,7.80
2022-11-30T22:56:32.182Z,7.80
2022-11-30T22:59:00.702Z,7.80
2022-11-30T23:01:34.728Z,7.80
2022-11-30T23:04:07.647Z,7.80
2022-11-30T23:06:35.329Z,7.80
2022-11-30T23:09:03.504Z,7.80
2022-11-30T23:11:30.516Z,7.70
2022-11-30T23:13:57.670Z,7.80
2022-11-30T23:16:25.665Z,7.70
2022-11-30T23:18:54.834Z,7.80
2022-11-30T23:21:27.122Z,7.70
2022-11-30T23:23:55.594Z,7.70
2022-11-30T23:26:25.553Z,7.70
2022-11-30T23:28:55.418Z,7.70
2022-11-30T23:31:34.535Z,7.70
2022-11-30T23:34:05.248Z,7.70
2022-11-30T23:36:33.691Z,7.70
2022-11-30T23:39:03.675Z,7.60
2022-11-30T23:41:30.540Z,7.60
2022-11-30T23:43:57.666Z,7.60
2022-11-30T23:46:25.398Z,7.60
2022-11-30T23:48:52.439Z,7.60
2022-11-30T23:51:19.429Z,7.60
2022-11-30T23:53:46.966Z,7.60
2022-11-30T23:56:15.946Z,7.60
2022-11-30T23:58:43.420Z,7.60
